Overview Statistics Trail Chart Weather Telemetry Raw packets
 

This is the latest recevied weather packets stored in our database for station/object G0TQM-11. If no packets are shown the sender has not sent any weather packets the latest 10 day(s).

<< 1 2 3 4 >>
Time Temp. Humidity Pressure Rain* Wind** Luminosity Snow
1788699731 29.44° C 36% 1013.1 hPa - - - -
1788698530 30.56° C 35% 1013.1 hPa - - - -
1788697330 28.89° C 37% 1013.5 hPa - - - -
1788696130 28.89° C 36% 1013.7 hPa - - - -
1788694930 28.89° C 36% 1014 hPa - - - -
1788693730 27.22° C 44% 1014.2 hPa - - - -
1788692530 24.44° C 47% 1014.4 hPa - - - -
1788691330 23.89° C 50% 1014.8 hPa - - - -
1788690129 24.44° C 51% 1014.8 hPa - - - -
1788688929 22.78° C 55% 1015.2 hPa - - - -
1788687729 21.11° C 59% 1015.7 hPa - - - -
1788686529 20° C 61% 1016 hPa - - - -
1788685329 20° C 61% 1016.1 hPa - - - -
1788684129 19.44° C 61% 1016.3 hPa - - - -
1788682929 20° C 62% 1016.5 hPa - - - -
1788681728 18.89° C 62% 1016.5 hPa - - - -
1788680528 18.89° C 63% 1016.3 hPa - - - -
1788679328 18.33° C 63% 1016.6 hPa - - - -
1788678128 17.78° C 63% 1016.5 hPa - - - -
1788676928 17.78° C 62% 1016.6 hPa - - - -
1788675727 18.33° C 60% 1016.7 hPa - - - -
1788674523 18.33° C 55% 1016.8 hPa - - - -
1788673323 18.89° C 51% 1016.8 hPa - - - -
1788672123 18.89° C 50% 1016.8 hPa - - - -
1788670923 18.89° C 50% 1016.9 hPa - - - -

* Rain since midnight (hover to see other rain measurements)
** Current wind speed in m/s (hover to see current wind gust speed)